CLT weather

Charlotte Douglas International Airport
Charlotte, North Carolina, United States

Public forecast

Using degrees Fahrenheit for public forecast. Weather courtesy of forecast.io.

METAR (pilot weather report)

Retrieved 2017/11/24 12:52 UTC (30 minutes ago):

KCLT 241252Z 09003KT 9SM CLR 01/00 A3007 RMK AO2 SLP184 T00060000

TAF (pilot weather forecast)

Retrieved 2017/11/24 12:22 UTC (1 hour ago):

TAF KCLT 241120Z 2412/2512 35003KT 6SM BR SKC FM241400 04003KT P6SM SKC FM241900 16004KT P6SM FEW250 FM250300 22003KT P6SM SCT250